sensor_id;sensor_type;location;lat;lon;timestamp;P1;durP1;ratioP1;P2;durP2;ratioP2
13463;SDS011;6804;48.774;9.174;2023-09-19T00:00:40;1.47;;;1.00;;
13463;SDS011;6804;48.774;9.174;2023-09-19T00:03:10;1.20;;;0.90;;
13463;SDS011;6804;48.774;9.174;2023-09-19T00:05:39;1.27;;;1.10;;
13463;SDS011;6804;48.774;9.174;2023-09-19T00:08:10;2.00;;;0.90;;
13463;SDS011;6804;48.774;9.174;2023-09-19T00:10:38;1.63;;;0.87;;
13463;SDS011;6804;48.774;9.174;2023-09-19T00:13:11;1.67;;;1.20;;
13463;SDS011;6804;48.774;9.174;2023-09-19T00:15:41;1.60;;;0.93;;
13463;SDS011;6804;48.774;9.174;2023-09-19T00:18:16;2.27;;;1.17;;
13463;SDS011;6804;48.774;9.174;2023-09-19T00:20:45;1.17;;;0.90;;
13463;SDS011;6804;48.774;9.174;2023-09-19T00:23:16;1.83;;;1.07;;
13463;SDS011;6804;48.774;9.174;2023-09-19T00:25:45;1.93;;;1.00;;
13463;SDS011;6804;48.774;9.174;2023-09-19T00:28:19;1.00;;;0.90;;
13463;SDS011;6804;48.774;9.174;2023-09-19T00:30:47;2.30;;;0.97;;
13463;SDS011;6804;48.774;9.174;2023-09-19T00:33:16;2.63;;;0.80;;
13463;SDS011;6804;48.774;9.174;2023-09-19T00:35:49;1.27;;;1.00;;
13463;SDS011;6804;48.774;9.174;2023-09-19T00:38:18;1.23;;;0.90;;
13463;SDS011;6804;48.774;9.174;2023-09-19T00:40:52;0.80;;;0.80;;
13463;SDS011;6804;48.774;9.174;2023-09-19T00:43:21;1.83;;;1.10;;
13463;SDS011;6804;48.774;9.174;2023-09-19T00:45:50;2.70;;;1.00;;
13463;SDS011;6804;48.774;9.174;2023-09-19T00:48:23;2.87;;;1.10;;
13463;SDS011;6804;48.774;9.174;2023-09-19T00:50:54;1.07;;;0.70;;
13463;SDS011;6804;48.774;9.174;2023-09-19T00:53:27;1.07;;;0.90;;
13463;SDS011;6804;48.774;9.174;2023-09-19T00:56:01;1.30;;;0.97;;
13463;SDS011;6804;48.774;9.174;2023-09-19T00:58:32;1.57;;;1.00;;
13463;SDS011;6804;48.774;9.174;2023-09-19T01:01:00;2.60;;;0.87;;
13463;SDS011;6804;48.774;9.174;2023-09-19T01:03:28;1.10;;;0.90;;
13463;SDS011;6804;48.774;9.174;2023-09-19T01:06:01;2.77;;;0.90;;
13463;SDS011;6804;48.774;9.174;2023-09-19T01:08:28;1.57;;;0.90;;
13463;SDS011;6804;48.774;9.174;2023-09-19T01:10:59;1.93;;;0.93;;
13463;SDS011;6804;48.774;9.174;2023-09-19T01:13:39;1.53;;;0.90;;
13463;SDS011;6804;48.774;9.174;2023-09-19T01:16:19;1.37;;;0.90;;
13463;SDS011;6804;48.774;9.174;2023-09-19T01:19:01;1.47;;;0.80;;
13463;SDS011;6804;48.774;9.174;2023-09-19T01:21:44;1.30;;;1.00;;
13463;SDS011;6804;48.774;9.174;2023-09-19T01:27:40;1.80;;;0.80;;
13463;SDS011;6804;48.774;9.174;2023-09-19T01:30:29;0.80;;;0.70;;
13463;SDS011;6804;48.774;9.174;2023-09-19T01:33:04;1.67;;;0.90;;
13463;SDS011;6804;48.774;9.174;2023-09-19T01:35:37;0.93;;;0.77;;
13463;SDS011;6804;48.774;9.174;2023-09-19T01:38:10;1.43;;;0.80;;
13463;SDS011;6804;48.774;9.174;2023-09-19T01:40:41;1.60;;;0.80;;
13463;SDS011;6804;48.774;9.174;2023-09-19T01:43:12;0.83;;;0.80;;
13463;SDS011;6804;48.774;9.174;2023-09-19T01:45:50;2.07;;;0.93;;
13463;SDS011;6804;48.774;9.174;2023-09-19T01:48:25;1.13;;;1.00;;
13463;SDS011;6804;48.774;9.174;2023-09-19T01:51:05;3.60;;;0.80;;
13463;SDS011;6804;48.774;9.174;2023-09-19T01:53:35;1.40;;;0.93;;
13463;SDS011;6804;48.774;9.174;2023-09-19T01:56:08;2.73;;;1.00;;
13463;SDS011;6804;48.774;9.174;2023-09-19T01:58:44;0.97;;;0.80;;
13463;SDS011;6804;48.774;9.174;2023-09-19T02:01:18;1.13;;;0.80;;
13463;SDS011;6804;48.774;9.174;2023-09-19T02:03:48;1.83;;;0.80;;
13463;SDS011;6804;48.774;9.174;2023-09-19T02:06:17;1.73;;;0.83;;
13463;SDS011;6804;48.774;9.174;2023-09-19T02:08:46;4.77;;;0.90;;
13463;SDS011;6804;48.774;9.174;2023-09-19T02:11:15;0.80;;;0.70;;
13463;SDS011;6804;48.774;9.174;2023-09-19T02:13:45;1.57;;;0.80;;
13463;SDS011;6804;48.774;9.174;2023-09-19T02:16:12;0.70;;;0.70;;
13463;SDS011;6804;48.774;9.174;2023-09-19T02:18:52;1.00;;;0.90;;
13463;SDS011;6804;48.774;9.174;2023-09-19T02:21:20;1.53;;;0.80;;
13463;SDS011;6804;48.774;9.174;2023-09-19T02:23:48;1.40;;;0.80;;
13463;SDS011;6804;48.774;9.174;2023-09-19T02:26:17;1.20;;;0.90;;
13463;SDS011;6804;48.774;9.174;2023-09-19T02:28:50;1.07;;;0.80;;
13463;SDS011;6804;48.774;9.174;2023-09-19T02:31:23;0.80;;;0.67;;
13463;SDS011;6804;48.774;9.174;2023-09-19T02:33:52;2.53;;;0.80;;
13463;SDS011;6804;48.774;9.174;2023-09-19T02:36:19;1.40;;;1.00;;
13463;SDS011;6804;48.774;9.174;2023-09-19T02:38:48;1.10;;;0.70;;
13463;SDS011;6804;48.774;9.174;2023-09-19T02:41:17;1.37;;;0.60;;
13463;SDS011;6804;48.774;9.174;2023-09-19T02:43:47;1.00;;;0.77;;
13463;SDS011;6804;48.774;9.174;2023-09-19T02:46:17;2.10;;;0.90;;
13463;SDS011;6804;48.774;9.174;2023-09-19T02:48:54;1.33;;;0.60;;
13463;SDS011;6804;48.774;9.174;2023-09-19T02:51:24;2.07;;;0.70;;
13463;SDS011;6804;48.774;9.174;2023-09-19T02:53:52;0.90;;;0.80;;
13463;SDS011;6804;48.774;9.174;2023-09-19T02:56:20;1.00;;;0.70;;
13463;SDS011;6804;48.774;9.174;2023-09-19T02:58:50;1.10;;;0.80;;
13463;SDS011;6804;48.774;9.174;2023-09-19T03:01:24;1.30;;;0.83;;
13463;SDS011;6804;48.774;9.174;2023-09-19T03:03:53;0.93;;;0.70;;
13463;SDS011;6804;48.774;9.174;2023-09-19T03:06:21;1.77;;;0.93;;
13463;SDS011;6804;48.774;9.174;2023-09-19T03:08:53;1.70;;;1.00;;
13463;SDS011;6804;48.774;9.174;2023-09-19T03:11:21;1.33;;;0.70;;
13463;SDS011;6804;48.774;9.174;2023-09-19T03:13:50;1.17;;;0.90;;
13463;SDS011;6804;48.774;9.174;2023-09-19T03:16:27;1.17;;;0.87;;
13463;SDS011;6804;48.774;9.174;2023-09-19T03:18:57;1.53;;;0.90;;
13463;SDS011;6804;48.774;9.174;2023-09-19T03:21:25;2.10;;;0.93;;
13463;SDS011;6804;48.774;9.174;2023-09-19T03:23:54;2.80;;;0.90;;
13463;SDS011;6804;48.774;9.174;2023-09-19T03:26:22;1.97;;;0.90;;
13463;SDS011;6804;48.774;9.174;2023-09-19T03:28:51;1.00;;;0.73;;
13463;SDS011;6804;48.774;9.174;2023-09-19T03:31:21;3.23;;;1.13;;
13463;SDS011;6804;48.774;9.174;2023-09-19T03:33:51;1.10;;;0.90;;
13463;SDS011;6804;48.774;9.174;2023-09-19T03:36:20;2.10;;;0.97;;
13463;SDS011;6804;48.774;9.174;2023-09-19T03:38:47;1.37;;;0.90;;
13463;SDS011;6804;48.774;9.174;2023-09-19T03:41:16;0.87;;;0.80;;
13463;SDS011;6804;48.774;9.174;2023-09-19T03:43:43;2.07;;;0.90;;
13463;SDS011;6804;48.774;9.174;2023-09-19T03:46:11;1.50;;;1.00;;
13463;SDS011;6804;48.774;9.174;2023-09-19T03:48:40;1.30;;;1.00;;
13463;SDS011;6804;48.774;9.174;2023-09-19T03:51:08;2.77;;;0.93;;
13463;SDS011;6804;48.774;9.174;2023-09-19T03:53:37;1.70;;;1.07;;
13463;SDS011;6804;48.774;9.174;2023-09-19T03:56:04;1.53;;;1.10;;
13463;SDS011;6804;48.774;9.174;2023-09-19T03:58:36;1.43;;;0.90;;
13463;SDS011;6804;48.774;9.174;2023-09-19T04:01:05;1.50;;;1.00;;
13463;SDS011;6804;48.774;9.174;2023-09-19T04:03:33;2.10;;;0.97;;
13463;SDS011;6804;48.774;9.174;2023-09-19T04:06:13;1.80;;;1.10;;
13463;SDS011;6804;48.774;9.174;2023-09-19T04:08:46;2.70;;;0.80;;
13463;SDS011;6804;48.774;9.174;2023-09-19T04:11:17;0.80;;;0.70;;
13463;SDS011;6804;48.774;9.174;2023-09-19T04:13:44;1.27;;;1.00;;
13463;SDS011;6804;48.774;9.174;2023-09-19T04:16:12;3.53;;;1.20;;
13463;SDS011;6804;48.774;9.174;2023-09-19T04:18:40;1.97;;;1.10;;
13463;SDS011;6804;48.774;9.174;2023-09-19T04:21:08;0.90;;;0.80;;
13463;SDS011;6804;48.774;9.174;2023-09-19T04:23:35;3.47;;;1.10;;
13463;SDS011;6804;48.774;9.174;2023-09-19T04:26:06;1.67;;;1.10;;
13463;SDS011;6804;48.774;9.174;2023-09-19T04:31:24;3.50;;;1.10;;
13463;SDS011;6804;48.774;9.174;2023-09-19T04:33:52;2.90;;;1.20;;
13463;SDS011;6804;48.774;9.174;2023-09-19T04:36:23;1.10;;;0.97;;
13463;SDS011;6804;48.774;9.174;2023-09-19T04:38:53;3.00;;;1.10;;
13463;SDS011;6804;48.774;9.174;2023-09-19T04:41:27;2.60;;;1.10;;
13463;SDS011;6804;48.774;9.174;2023-09-19T04:43:56;1.70;;;1.20;;
13463;SDS011;6804;48.774;9.174;2023-09-19T04:46:23;2.70;;;1.10;;
13463;SDS011;6804;48.774;9.174;2023-09-19T04:48:52;1.87;;;1.00;;
13463;SDS011;6804;48.774;9.174;2023-09-19T04:51:23;2.93;;;1.47;;
13463;SDS011;6804;48.774;9.174;2023-09-19T04:53:56;2.57;;;1.20;;
13463;SDS011;6804;48.774;9.174;2023-09-19T04:56:27;2.13;;;1.17;;
13463;SDS011;6804;48.774;9.174;2023-09-19T04:58:57;2.53;;;1.20;;
13463;SDS011;6804;48.774;9.174;2023-09-19T05:01:28;1.73;;;1.10;;
13463;SDS011;6804;48.774;9.174;2023-09-19T05:06:47;1.83;;;1.33;;
13463;SDS011;6804;48.774;9.174;2023-09-19T05:09:18;2.47;;;1.40;;
13463;SDS011;6804;48.774;9.174;2023-09-19T05:11:47;2.47;;;1.20;;
13463;SDS011;6804;48.774;9.174;2023-09-19T05:14:18;3.43;;;1.27;;
13463;SDS011;6804;48.774;9.174;2023-09-19T05:19:37;2.73;;;1.50;;
13463;SDS011;6804;48.774;9.174;2023-09-19T05:22:04;2.63;;;1.40;;
13463;SDS011;6804;48.774;9.174;2023-09-19T05:24:34;2.27;;;1.30;;
13463;SDS011;6804;48.774;9.174;2023-09-19T05:27:06;1.70;;;1.30;;
13463;SDS011;6804;48.774;9.174;2023-09-19T05:29:33;2.80;;;1.20;;
13463;SDS011;6804;48.774;9.174;2023-09-19T05:32:02;3.23;;;1.30;;
13463;SDS011;6804;48.774;9.174;2023-09-19T05:34:30;2.70;;;1.47;;
13463;SDS011;6804;48.774;9.174;2023-09-19T05:37:00;1.90;;;1.10;;
13463;SDS011;6804;48.774;9.174;2023-09-19T05:39:27;2.43;;;1.43;;
13463;SDS011;6804;48.774;9.174;2023-09-19T05:41:55;4.67;;;1.50;;
13463;SDS011;6804;48.774;9.174;2023-09-19T05:44:25;3.60;;;1.40;;
13463;SDS011;6804;48.774;9.174;2023-09-19T05:46:53;3.53;;;1.60;;
13463;SDS011;6804;48.774;9.174;2023-09-19T05:49:22;1.40;;;1.20;;
13463;SDS011;6804;48.774;9.174;2023-09-19T05:51:50;3.00;;;1.20;;
13463;SDS011;6804;48.774;9.174;2023-09-19T05:54:22;6.27;;;1.30;;
13463;SDS011;6804;48.774;9.174;2023-09-19T05:56:50;3.00;;;1.60;;
13463;SDS011;6804;48.774;9.174;2023-09-19T05:59:19;1.83;;;1.20;;
13463;SDS011;6804;48.774;9.174;2023-09-19T06:01:49;2.73;;;1.20;;
13463;SDS011;6804;48.774;9.174;2023-09-19T06:04:22;2.87;;;1.23;;
13463;SDS011;6804;48.774;9.174;2023-09-19T06:06:52;1.73;;;0.87;;
13463;SDS011;6804;48.774;9.174;2023-09-19T06:09:20;1.63;;;1.10;;
13463;SDS011;6804;48.774;9.174;2023-09-19T06:11:51;3.13;;;1.10;;
13463;SDS011;6804;48.774;9.174;2023-09-19T06:19:54;1.37;;;1.20;;
13463;SDS011;6804;48.774;9.174;2023-09-19T06:22:22;1.90;;;1.00;;
13463;SDS011;6804;48.774;9.174;2023-09-19T06:24:51;2.13;;;1.17;;
13463;SDS011;6804;48.774;9.174;2023-09-19T06:27:21;2.27;;;1.23;;
13463;SDS011;6804;48.774;9.174;2023-09-19T06:29:50;3.57;;;1.40;;
13463;SDS011;6804;48.774;9.174;2023-09-19T06:32:30;2.50;;;1.40;;
13463;SDS011;6804;48.774;9.174;2023-09-19T06:34:58;2.43;;;1.30;;
13463;SDS011;6804;48.774;9.174;2023-09-19T06:40:16;3.17;;;1.60;;
13463;SDS011;6804;48.774;9.174;2023-09-19T06:42:49;3.03;;;1.20;;
13463;SDS011;6804;48.774;9.174;2023-09-19T06:45:19;5.03;;;2.13;;
13463;SDS011;6804;48.774;9.174;2023-09-19T06:47:50;3.57;;;1.50;;
13463;SDS011;6804;48.774;9.174;2023-09-19T06:50:23;4.40;;;1.27;;
13463;SDS011;6804;48.774;9.174;2023-09-19T06:52:54;3.83;;;2.23;;
13463;SDS011;6804;48.774;9.174;2023-09-19T06:58:17;2.90;;;1.50;;
13463;SDS011;6804;48.774;9.174;2023-09-19T07:00:45;3.60;;;1.70;;
13463;SDS011;6804;48.774;9.174;2023-09-19T07:03:21;4.80;;;1.63;;
13463;SDS011;6804;48.774;9.174;2023-09-19T07:05:52;4.47;;;1.73;;
13463;SDS011;6804;48.774;9.174;2023-09-19T07:08:21;5.20;;;1.57;;
13463;SDS011;6804;48.774;9.174;2023-09-19T07:10:49;3.23;;;1.53;;
13463;SDS011;6804;48.774;9.174;2023-09-19T07:13:19;4.53;;;1.40;;
13463;SDS011;6804;48.774;9.174;2023-09-19T07:15:47;2.10;;;1.30;;
13463;SDS011;6804;48.774;9.174;2023-09-19T07:18:21;3.27;;;1.50;;
13463;SDS011;6804;48.774;9.174;2023-09-19T07:20:49;2.67;;;1.30;;
13463;SDS011;6804;48.774;9.174;2023-09-19T07:23:17;3.10;;;1.40;;
13463;SDS011;6804;48.774;9.174;2023-09-19T07:25:51;3.87;;;1.40;;
13463;SDS011;6804;48.774;9.174;2023-09-19T07:28:22;3.87;;;1.57;;
13463;SDS011;6804;48.774;9.174;2023-09-19T07:30:50;1.60;;;1.30;;
13463;SDS011;6804;48.774;9.174;2023-09-19T07:33:25;1.97;;;1.40;;
13463;SDS011;6804;48.774;9.174;2023-09-19T07:35:53;4.07;;;2.20;;
13463;SDS011;6804;48.774;9.174;2023-09-19T07:38:21;2.90;;;1.50;;
13463;SDS011;6804;48.774;9.174;2023-09-19T07:40:50;4.83;;;1.50;;
13463;SDS011;6804;48.774;9.174;2023-09-19T07:43:23;3.90;;;1.27;;
13463;SDS011;6804;48.774;9.174;2023-09-19T07:45:53;3.90;;;1.77;;
13463;SDS011;6804;48.774;9.174;2023-09-19T07:48:21;2.30;;;1.60;;
13463;SDS011;6804;48.774;9.174;2023-09-19T07:50:54;2.53;;;1.53;;
13463;SDS011;6804;48.774;9.174;2023-09-19T07:53:21;4.10;;;1.27;;
13463;SDS011;6804;48.774;9.174;2023-09-19T07:56:01;1.50;;;1.20;;
13463;SDS011;6804;48.774;9.174;2023-09-19T07:58:29;2.10;;;1.50;;
13463;SDS011;6804;48.774;9.174;2023-09-19T08:01:02;2.23;;;1.50;;
13463;SDS011;6804;48.774;9.174;2023-09-19T08:03:32;2.03;;;1.40;;
13463;SDS011;6804;48.774;9.174;2023-09-19T08:06:02;3.80;;;1.70;;
13463;SDS011;6804;48.774;9.174;2023-09-19T08:08:34;1.93;;;1.27;;
13463;SDS011;6804;48.774;9.174;2023-09-19T08:11:03;2.47;;;1.42;;
13463;SDS011;6804;48.774;9.174;2023-09-19T08:13:37;3.20;;;1.38;;
13463;SDS011;6804;48.774;9.174;2023-09-19T08:16:12;2.10;;;1.20;;
13463;SDS011;6804;48.774;9.174;2023-09-19T08:18:40;2.22;;;1.27;;
13463;SDS011;6804;48.774;9.174;2023-09-19T08:21:11;1.73;;;1.10;;
13463;SDS011;6804;48.774;9.174;2023-09-19T08:23:41;2.45;;;0.90;;
13463;SDS011;6804;48.774;9.174;2023-09-19T08:26:11;1.42;;;1.20;;
13463;SDS011;6804;48.774;9.174;2023-09-19T08:28:39;1.65;;;1.20;;
13463;SDS011;6804;48.774;9.174;2023-09-19T08:31:07;1.58;;;1.40;;
13463;SDS011;6804;48.774;9.174;2023-09-19T08:33:40;2.90;;;1.10;;
13463;SDS011;6804;48.774;9.174;2023-09-19T08:36:13;1.65;;;1.13;;
13463;SDS011;6804;48.774;9.174;2023-09-19T08:38:43;2.42;;;1.10;;
13463;SDS011;6804;48.774;9.174;2023-09-19T08:41:16;5.38;;;1.20;;
13463;SDS011;6804;48.774;9.174;2023-09-19T08:43:45;3.13;;;1.45;;
13463;SDS011;6804;48.774;9.174;2023-09-19T08:46:15;2.15;;;1.73;;
13463;SDS011;6804;48.774;9.174;2023-09-19T08:48:45;1.63;;;1.30;;
13463;SDS011;6804;48.774;9.174;2023-09-19T08:51:21;2.00;;;0.90;;
13463;SDS011;6804;48.774;9.174;2023-09-19T08:53:58;1.92;;;1.15;;
13463;SDS011;6804;48.774;9.174;2023-09-19T08:56:35;3.83;;;1.30;;
13463;SDS011;6804;48.774;9.174;2023-09-19T08:59:05;1.83;;;1.20;;
13463;SDS011;6804;48.774;9.174;2023-09-19T09:01:39;3.33;;;1.30;;
13463;SDS011;6804;48.774;9.174;2023-09-19T09:04:13;1.40;;;1.20;;
13463;SDS011;6804;48.774;9.174;2023-09-19T09:06:44;2.22;;;1.17;;
13463;SDS011;6804;48.774;9.174;2023-09-19T09:09:16;4.70;;;1.55;;
13463;SDS011;6804;48.774;9.174;2023-09-19T09:11:44;2.00;;;1.40;;
13463;SDS011;6804;48.774;9.174;2023-09-19T09:14:20;2.10;;;1.00;;
13463;SDS011;6804;48.774;9.174;2023-09-19T09:16:52;1.88;;;1.10;;
13463;SDS011;6804;48.774;9.174;2023-09-19T09:19:24;1.60;;;1.17;;
13463;SDS011;6804;48.774;9.174;2023-09-19T09:21:55;2.53;;;1.30;;
13463;SDS011;6804;48.774;9.174;2023-09-19T09:24:35;1.75;;;1.40;;
13463;SDS011;6804;48.774;9.174;2023-09-19T09:27:05;2.45;;;1.40;;
13463;SDS011;6804;48.774;9.174;2023-09-19T09:29:43;2.00;;;1.30;;
13463;SDS011;6804;48.774;9.174;2023-09-19T09:32:22;3.88;;;1.42;;
13463;SDS011;6804;48.774;9.174;2023-09-19T09:34:55;2.33;;;1.30;;
13463;SDS011;6804;48.774;9.174;2023-09-19T09:37:28;2.20;;;1.10;;
13463;SDS011;6804;48.774;9.174;2023-09-19T09:40:04;2.67;;;1.45;;
13463;SDS011;6804;48.774;9.174;2023-09-19T09:42:45;3.40;;;1.80;;
13463;SDS011;6804;48.774;9.174;2023-09-19T09:45:15;3.17;;;1.50;;
13463;SDS011;6804;48.774;9.174;2023-09-19T09:47:49;4.97;;;1.85;;
13463;SDS011;6804;48.774;9.174;2023-09-19T09:50:26;3.28;;;1.35;;
13463;SDS011;6804;48.774;9.174;2023-09-19T09:53:25;1.40;;;1.30;;
13463;SDS011;6804;48.774;9.174;2023-09-19T09:55:57;2.00;;;1.30;;
13463;SDS011;6804;48.774;9.174;2023-09-19T09:58:50;3.55;;;2.17;;
13463;SDS011;6804;48.774;9.174;2023-09-19T10:01:24;2.83;;;1.38;;
13463;SDS011;6804;48.774;9.174;2023-09-19T10:03:57;2.17;;;1.52;;
13463;SDS011;6804;48.774;9.174;2023-09-19T10:06:39;3.78;;;1.90;;
13463;SDS011;6804;48.774;9.174;2023-09-19T10:09:15;2.25;;;1.42;;
13463;SDS011;6804;48.774;9.174;2023-09-19T10:11:46;4.47;;;2.30;;
13463;SDS011;6804;48.774;9.174;2023-09-19T10:14:24;1.73;;;1.30;;
13463;SDS011;6804;48.774;9.174;2023-09-19T10:16:56;2.83;;;1.50;;
13463;SDS011;6804;48.774;9.174;2023-09-19T10:19:30;2.03;;;1.50;;
13463;SDS011;6804;48.774;9.174;2023-09-19T10:22:08;2.25;;;1.20;;
13463;SDS011;6804;48.774;9.174;2023-09-19T10:24:48;3.42;;;1.55;;
13463;SDS011;6804;48.774;9.174;2023-09-19T10:27:21;2.70;;;1.38;;
13463;SDS011;6804;48.774;9.174;2023-09-19T10:29:56;2.30;;;1.67;;
13463;SDS011;6804;48.774;9.174;2023-09-19T10:32:26;1.75;;;1.50;;
13463;SDS011;6804;48.774;9.174;2023-09-19T10:34:58;3.25;;;1.50;;
13463;SDS011;6804;48.774;9.174;2023-09-19T10:37:31;1.77;;;1.40;;
13463;SDS011;6804;48.774;9.174;2023-09-19T10:40:10;1.35;;;1.25;;
13463;SDS011;6804;48.774;9.174;2023-09-19T10:48:10;3.45;;;1.75;;
13463;SDS011;6804;48.774;9.174;2023-09-19T10:50:43;1.50;;;1.17;;
13463;SDS011;6804;48.774;9.174;2023-09-19T10:53:19;2.17;;;1.50;;
13463;SDS011;6804;48.774;9.174;2023-09-19T10:55:53;1.73;;;1.10;;
13463;SDS011;6804;48.774;9.174;2023-09-19T10:58:30;2.00;;;1.70;;
13463;SDS011;6804;48.774;9.174;2023-09-19T11:01:06;5.13;;;2.10;;
13463;SDS011;6804;48.774;9.174;2023-09-19T11:03:38;1.92;;;1.20;;
13463;SDS011;6804;48.774;9.174;2023-09-19T11:06:09;1.60;;;1.30;;
13463;SDS011;6804;48.774;9.174;2023-09-19T11:08:53;1.65;;;1.35;;
13463;SDS011;6804;48.774;9.174;2023-09-19T11:11:50;2.05;;;1.40;;
13463;SDS011;6804;48.774;9.174;2023-09-19T11:14:40;3.42;;;1.55;;
13463;SDS011;6804;48.774;9.174;2023-09-19T11:20:25;2.97;;;1.55;;
13463;SDS011;6804;48.774;9.174;2023-09-19T11:23:18;1.98;;;1.42;;
13463;SDS011;6804;48.774;9.174;2023-09-19T11:25:55;2.20;;;1.50;;
13463;SDS011;6804;48.774;9.174;2023-09-19T11:28:37;3.67;;;1.95;;
13463;SDS011;6804;48.774;9.174;2023-09-19T11:40:33;3.65;;;1.77;;
13463;SDS011;6804;48.774;9.174;2023-09-19T11:46:07;2.20;;;1.23;;
13463;SDS011;6804;48.774;9.174;2023-09-19T11:48:40;3.05;;;1.23;;
13463;SDS011;6804;48.774;9.174;2023-09-19T11:51:17;2.72;;;1.60;;
13463;SDS011;6804;48.774;9.174;2023-09-19T11:53:54;3.00;;;1.30;;
13463;SDS011;6804;48.774;9.174;2023-09-19T11:56:26;2.42;;;1.38;;
13463;SDS011;6804;48.774;9.174;2023-09-19T11:58:58;1.33;;;1.08;;
13463;SDS011;6804;48.774;9.174;2023-09-19T12:01:31;2.33;;;1.00;;
13463;SDS011;6804;48.774;9.174;2023-09-19T12:04:07;2.13;;;1.40;;
13463;SDS011;6804;48.774;9.174;2023-09-19T12:06:42;2.03;;;1.30;;
13463;SDS011;6804;48.774;9.174;2023-09-19T12:09:12;1.88;;;1.20;;
13463;SDS011;6804;48.774;9.174;2023-09-19T12:11:43;1.30;;;1.00;;
13463;SDS011;6804;48.774;9.174;2023-09-19T12:14:21;3.85;;;1.50;;
13463;SDS011;6804;48.774;9.174;2023-09-19T12:17:04;3.75;;;1.50;;
13463;SDS011;6804;48.774;9.174;2023-09-19T12:19:33;1.65;;;1.20;;
13463;SDS011;6804;48.774;9.174;2023-09-19T12:22:06;4.13;;;1.27;;
13463;SDS011;6804;48.774;9.174;2023-09-19T12:24:37;2.60;;;1.30;;
13463;SDS011;6804;48.774;9.174;2023-09-19T12:27:08;3.15;;;1.40;;
13463;SDS011;6804;48.774;9.174;2023-09-19T12:29:44;2.83;;;1.30;;
13463;SDS011;6804;48.774;9.174;2023-09-19T12:32:19;3.40;;;1.45;;
13463;SDS011;6804;48.774;9.174;2023-09-19T12:35:06;3.28;;;1.10;;
13463;SDS011;6804;48.774;9.174;2023-09-19T12:37:57;1.77;;;1.30;;
13463;SDS011;6804;48.774;9.174;2023-09-19T12:40:29;1.50;;;1.20;;
13463;SDS011;6804;48.774;9.174;2023-09-19T12:43:04;1.63;;;1.35;;
13463;SDS011;6804;48.774;9.174;2023-09-19T12:45:36;4.10;;;2.10;;
13463;SDS011;6804;48.774;9.174;2023-09-19T12:48:22;3.05;;;1.50;;
13463;SDS011;6804;48.774;9.174;2023-09-19T12:51:04;1.52;;;1.02;;
13463;SDS011;6804;48.774;9.174;2023-09-19T12:53:34;1.58;;;1.10;;
13463;SDS011;6804;48.774;9.174;2023-09-19T12:56:06;1.45;;;1.33;;
13463;SDS011;6804;48.774;9.174;2023-09-19T13:01:21;1.67;;;1.42;;
13463;SDS011;6804;48.774;9.174;2023-09-19T13:06:44;2.92;;;1.52;;
13463;SDS011;6804;48.774;9.174;2023-09-19T13:09:14;2.67;;;1.38;;
13463;SDS011;6804;48.774;9.174;2023-09-19T13:11:48;1.90;;;1.30;;
13463;SDS011;6804;48.774;9.174;2023-09-19T13:14:22;2.35;;;1.58;;
13463;SDS011;6804;48.774;9.174;2023-09-19T13:16:57;1.65;;;1.17;;
13463;SDS011;6804;48.774;9.174;2023-09-19T13:19:40;2.03;;;1.15;;
13463;SDS011;6804;48.774;9.174;2023-09-19T13:25:13;1.75;;;1.42;;
13463;SDS011;6804;48.774;9.174;2023-09-19T13:27:44;2.63;;;1.20;;
13463;SDS011;6804;48.774;9.174;2023-09-19T13:30:19;3.08;;;1.40;;
13463;SDS011;6804;48.774;9.174;2023-09-19T13:32:49;1.23;;;1.08;;
13463;SDS011;6804;48.774;9.174;2023-09-19T13:35:21;1.75;;;1.30;;
13463;SDS011;6804;48.774;9.174;2023-09-19T13:37:50;1.55;;;1.30;;
13463;SDS011;6804;48.774;9.174;2023-09-19T13:40:21;1.90;;;1.30;;
13463;SDS011;6804;48.774;9.174;2023-09-19T13:42:49;2.25;;;1.50;;
13463;SDS011;6804;48.774;9.174;2023-09-19T13:45:22;2.97;;;1.65;;
13463;SDS011;6804;48.774;9.174;2023-09-19T13:47:56;2.53;;;1.20;;
13463;SDS011;6804;48.774;9.174;2023-09-19T13:50:28;2.08;;;1.38;;
13463;SDS011;6804;48.774;9.174;2023-09-19T13:53:00;2.38;;;1.75;;
13463;SDS011;6804;48.774;9.174;2023-09-19T13:55:31;2.22;;;1.23;;
13463;SDS011;6804;48.774;9.174;2023-09-19T13:58:00;3.05;;;1.58;;
13463;SDS011;6804;48.774;9.174;2023-09-19T14:00:28;2.65;;;1.50;;
13463;SDS011;6804;48.774;9.174;2023-09-19T14:03:03;3.17;;;1.63;;
13463;SDS011;6804;48.774;9.174;2023-09-19T14:05:32;2.95;;;1.35;;
13463;SDS011;6804;48.774;9.174;2023-09-19T14:08:01;1.30;;;1.13;;
13463;SDS011;6804;48.774;9.174;2023-09-19T14:10:30;1.73;;;1.30;;
13463;SDS011;6804;48.774;9.174;2023-09-19T14:13:02;1.95;;;1.35;;
13463;SDS011;6804;48.774;9.174;2023-09-19T14:15:31;3.20;;;1.40;;
13463;SDS011;6804;48.774;9.174;2023-09-19T14:18:04;2.10;;;1.40;;
13463;SDS011;6804;48.774;9.174;2023-09-19T14:20:37;2.60;;;1.30;;
13463;SDS011;6804;48.774;9.174;2023-09-19T14:23:10;3.42;;;2.00;;
13463;SDS011;6804;48.774;9.174;2023-09-19T14:25:44;2.10;;;1.67;;
13463;SDS011;6804;48.774;9.174;2023-09-19T14:28:14;2.83;;;1.27;;
13463;SDS011;6804;48.774;9.174;2023-09-19T14:30:41;1.77;;;1.30;;
13463;SDS011;6804;48.774;9.174;2023-09-19T14:33:11;1.92;;;1.20;;
13463;SDS011;6804;48.774;9.174;2023-09-19T14:35:44;2.08;;;1.38;;
13463;SDS011;6804;48.774;9.174;2023-09-19T14:38:14;1.90;;;1.70;;
13463;SDS011;6804;48.774;9.174;2023-09-19T14:40:43;3.45;;;1.60;;
13463;SDS011;6804;48.774;9.174;2023-09-19T14:43:14;2.22;;;1.58;;
13463;SDS011;6804;48.774;9.174;2023-09-19T14:45:44;1.35;;;1.13;;
13463;SDS011;6804;48.774;9.174;2023-09-19T14:48:13;1.83;;;1.60;;
13463;SDS011;6804;48.774;9.174;2023-09-19T14:50:44;2.08;;;1.30;;
13463;SDS011;6804;48.774;9.174;2023-09-19T14:53:16;1.27;;;1.08;;
13463;SDS011;6804;48.774;9.174;2023-09-19T14:55:47;2.20;;;1.38;;
13463;SDS011;6804;48.774;9.174;2023-09-19T14:58:17;2.33;;;1.70;;
13463;SDS011;6804;48.774;9.174;2023-09-19T15:00:46;2.03;;;1.83;;
13463;SDS011;6804;48.774;9.174;2023-09-19T15:03:22;1.77;;;1.60;;
13463;SDS011;6804;48.774;9.174;2023-09-19T15:06:00;1.90;;;1.60;;
13463;SDS011;6804;48.774;9.174;2023-09-19T15:08:32;3.03;;;2.10;;
13463;SDS011;6804;48.774;9.174;2023-09-19T15:11:04;3.15;;;1.50;;
13463;SDS011;6804;48.774;9.174;2023-09-19T15:13:33;3.05;;;1.88;;
13463;SDS011;6804;48.774;9.174;2023-09-19T15:16:08;1.27;;;1.17;;
13463;SDS011;6804;48.774;9.174;2023-09-19T15:18:45;2.13;;;1.70;;
13463;SDS011;6804;48.774;9.174;2023-09-19T15:21:15;1.92;;;1.00;;
13463;SDS011;6804;48.774;9.174;2023-09-19T15:23:43;2.10;;;1.60;;
13463;SDS011;6804;48.774;9.174;2023-09-19T15:26:14;1.55;;;1.23;;
13463;SDS011;6804;48.774;9.174;2023-09-19T15:28:45;3.08;;;1.45;;
13463;SDS011;6804;48.774;9.174;2023-09-19T15:31:13;1.60;;;1.20;;
13463;SDS011;6804;48.774;9.174;2023-09-19T15:33:41;1.55;;;1.13;;
13463;SDS011;6804;48.774;9.174;2023-09-19T15:36:11;2.83;;;1.40;;
13463;SDS011;6804;48.774;9.174;2023-09-19T15:38:58;1.52;;;1.30;;
13463;SDS011;6804;48.774;9.174;2023-09-19T15:41:26;2.75;;;1.50;;
13463;SDS011;6804;48.774;9.174;2023-09-19T15:43:56;2.97;;;1.40;;
13463;SDS011;6804;48.774;9.174;2023-09-19T15:46:36;2.47;;;1.50;;
13463;SDS011;6804;48.774;9.174;2023-09-19T15:49:07;1.67;;;1.30;;
13463;SDS011;6804;48.774;9.174;2023-09-19T15:51:36;2.47;;;1.80;;
13463;SDS011;6804;48.774;9.174;2023-09-19T15:54:09;1.70;;;1.50;;
13463;SDS011;6804;48.774;9.174;2023-09-19T15:56:43;1.88;;;1.58;;
13463;SDS011;6804;48.774;9.174;2023-09-19T15:59:18;2.20;;;1.45;;
13463;SDS011;6804;48.774;9.174;2023-09-19T16:01:46;1.77;;;1.35;;
13463;SDS011;6804;48.774;9.174;2023-09-19T16:04:16;2.30;;;1.67;;
13463;SDS011;6804;48.774;9.174;2023-09-19T16:06:45;1.50;;;1.23;;
13463;SDS011;6804;48.774;9.174;2023-09-19T16:09:18;1.80;;;1.52;;
13463;SDS011;6804;48.774;9.174;2023-09-19T16:11:48;1.83;;;1.40;;
13463;SDS011;6804;48.774;9.174;2023-09-19T16:14:17;1.85;;;1.33;;
13463;SDS011;6804;48.774;9.174;2023-09-19T16:16:45;2.90;;;1.90;;
13463;SDS011;6804;48.774;9.174;2023-09-19T16:19:15;2.90;;;2.05;;
13463;SDS011;6804;48.774;9.174;2023-09-19T16:21:45;3.28;;;2.00;;